Time;durP1;ratioP1;P1;durP2;ratioP2;P2;SDS_P1;SDS_P2;PMS_P1;PMS_P2;Temp;Humidity;BMP_temperature;BMP_pressure;BME280_temperature;BME280_humidity;BME280_pressure;Samples;Min_cycle;Max_cycle;Signal;HPM_P1;HPM_P2
2021/05/23 00:01:10;;;;;;;22.58;15.35;;;12.70;99.90;;;13.02;78.62;100825.03;5094820;28;20051;-79
2021/05/23 00:03:38;;;;;;;20.35;15.15;;;12.70;99.90;;;13.01;78.86;100804.69;5094833;28;20097;-79
2021/05/23 00:06:07;;;;;;;21.52;14.48;;;12.60;99.90;;;13.04;78.67;100804.69;5094478;28;20109;-78
2021/05/23 00:08:35;;;;;;;20.42;15.73;;;12.70;99.90;;;13.04;78.63;100801.13;5094396;28;20535;-79
2021/05/23 00:11:07;;;;;;;20.15;15.65;;;12.70;99.90;;;13.07;78.53;100804.63;5076418;28;20078;-78
2021/05/23 00:13:41;;;;;;;22.27;15.00;;;12.70;99.90;;;13.09;78.39;100801.94;5094421;28;20079;-79
2021/05/23 00:16:11;;;;;;;22.98;15.20;;;12.70;99.90;;;12.58;78.14;100702.75;5094545;28;20047;-79
2021/05/23 00:18:42;;;;;;;20.88;13.90;;;12.80;99.90;;;13.16;77.93;100809.78;5076560;28;20056;-78
2021/05/23 00:21:13;;;;;;;25.95;13.77;;;12.80;99.90;;;13.19;77.51;100808.84;5094527;28;20044;-79
2021/05/23 00:23:41;;;;;;;25.58;14.27;;;12.90;99.90;;;13.22;77.59;100807.03;5094525;28;20036;-79
2021/05/23 00:26:10;;;;;;;21.77;13.73;;;12.90;99.90;;;13.18;77.08;100805.31;5094562;28;20048;-79
2021/05/23 00:28:38;;;;;;;22.55;13.40;;;12.90;99.90;;;13.22;76.85;100804.38;5094395;28;20101;-79
2021/05/23 00:31:06;;;;;;;18.55;13.45;;;12.90;99.90;;;13.27;76.63;100807.84;5094049;28;20048;-78
2021/05/23 00:33:35;;;;;;;19.00;12.30;;;13.00;99.90;;;13.27;76.90;100802.53;5076072;28;20044;-79
2021/05/23 00:36:04;;;;;;;18.73;13.30;;;12.90;99.90;;;13.30;76.47;100805.13;5094143;28;20040;-79
2021/05/23 00:38:33;;;;;;;24.95;14.80;;;13.00;99.90;;;13.35;76.38;100803.28;5094500;28;20071;-79
2021/05/23 00:41:01;;;;;;;20.17;13.73;;;13.00;99.90;;;13.38;76.44;100811.19;5093734;28;20486;-79
2021/05/23 00:43:31;;;;;;;26.35;14.45;;;13.10;99.90;;;13.38;76.40;100800.56;5094178;28;20066;-79
2021/05/23 00:45:58;;;;;;;21.33;14.85;;;13.10;99.90;;;13.29;76.51;100798.06;5094007;28;20438;-79
2021/05/23 00:48:27;;;;;;;21.30;14.02;;;13.10;99.90;;;13.40;76.53;100809.38;5093877;28;20054;-79
2021/05/23 00:50:55;;;;;;;21.55;14.75;;;13.10;99.90;;;13.42;76.62;100835.94;5093950;28;20044;-79
2021/05/23 00:53:23;;;;;;;19.45;14.23;;;13.10;99.90;;;13.32;76.89;100821.91;5075728;28;20056;-79
2021/05/23 00:55:52;;;;;;;19.85;14.13;;;13.10;99.90;;;13.20;77.11;100790.22;5093535;28;20413;-79
2021/05/23 00:58:20;;;;;;;17.13;14.50;;;13.00;99.90;;;13.36;77.32;100813.00;5075582;28;20501;-80
2021/05/23 01:01:16;;;;;;;18.98;13.15;;;13.00;99.90;;;12.81;77.50;100720.94;5093375;28;20125;-79
2021/05/23 01:03:59;;;;;;;21.42;14.00;;;13.00;99.90;;;13.35;77.77;100819.22;5093819;28;20105;-79
2021/05/23 01:06:28;;;;;;;21.40;13.68;;;13.00;99.90;;;12.86;77.75;100741.22;5093765;28;20117;-78
2021/05/23 01:08:56;;;;;;;23.20;14.77;;;12.90;99.90;;;13.21;77.89;100815.03;5093377;28;20044;-79
2021/05/23 01:12:24;;;;;;;21.35;14.48;;;12.80;99.90;;;12.88;79.16;100815.50;5075643;28;20044;-79
2021/05/23 01:14:58;;;;;;;25.27;14.60;;;12.50;99.90;;;12.88;79.62;100819.03;5091741;28;20113;-79
2021/05/23 01:17:41;;;;;;;25.33;14.80;;;12.50;99.90;;;12.96;79.54;100806.53;5075357;28;20048;-79
2021/05/23 01:20:47;;;;;;;23.27;14.85;;;12.50;99.90;;;13.02;79.33;100816.19;5093521;28;20048;-79
2021/05/23 01:23:29;;;;;;;27.90;14.95;;;12.60;99.90;;;13.02;79.18;100809.09;5010963;28;20049;-79
2021/05/23 01:26:05;;;;;;;24.52;14.93;;;12.60;99.90;;;13.09;79.08;100813.44;5087676;28;20550;-79
2021/05/23 01:28:40;;;;;;;18.40;14.45;;;12.70;99.90;;;13.13;79.03;100819.56;5075241;28;20052;-79
2021/05/23 01:31:13;;;;;;;22.92;15.52;;;12.80;99.90;;;13.12;78.92;100804.56;5093383;28;20051;-80
2021/05/23 01:33:41;;;;;;;22.23;15.13;;;12.70;99.90;;;13.04;78.80;100796.72;5093281;28;20044;-78
2021/05/23 01:36:11;;;;;;;19.35;14.70;;;12.70;99.90;;;13.09;78.72;100801.94;5093104;28;20055;-79
2021/05/23 01:38:39;;;;;;;21.10;13.48;;;12.70;99.90;;;13.08;78.60;100806.38;5093497;28;20059;-79
2021/05/23 01:41:10;;;;;;;22.55;14.82;;;12.70;99.90;;;12.79;78.66;100765.22;5075016;28;20059;-79
2021/05/23 01:43:39;;;;;;;22.40;15.25;;;12.60;99.90;;;12.91;78.72;100787.13;5093191;28;20123;-80
2021/05/23 01:46:08;;;;;;;22.98;15.30;;;12.60;99.90;;;13.02;78.83;100797.59;5093103;28;20050;-79
2021/05/23 01:48:38;;;;;;;21.48;15.18;;;12.70;99.90;;;12.98;79.13;100799.44;5093129;28;20079;-79
2021/05/23 01:51:07;;;;;;;25.15;17.15;;;12.70;99.90;;;13.01;79.33;100791.41;5075193;28;20056;-77
2021/05/23 01:53:38;;;;;;;25.33;17.57;;;12.70;99.90;;;12.99;79.15;100776.41;5093380;28;20044;-80
2021/05/23 01:56:09;;;;;;;24.10;16.83;;;12.70;99.90;;;13.11;79.13;100797.47;5092987;28;20067;-79
2021/05/23 01:58:37;;;;;;;22.27;17.73;;;12.80;99.90;;;12.97;78.85;100767.59;5092781;28;20464;-79
2021/05/23 02:01:06;;;;;;;26.02;18.40;;;12.90;99.90;;;13.17;78.54;100798.25;5092678;28;20048;-79
2021/05/23 02:03:34;;;;;;;24.52;18.42;;;12.90;99.90;;;12.62;78.64;100702.66;5092935;28;20044;-79
2021/05/23 02:06:05;;;;;;;24.30;18.30;;;12.90;99.90;;;13.04;78.41;100780.78;5092665;28;20052;-77
2021/05/23 02:08:34;;;;;;;29.52;17.92;;;12.90;99.90;;;13.15;78.62;100802.72;5092925;28;20047;-79
2021/05/23 02:11:08;;;;;;;21.63;17.95;;;12.90;99.90;;;13.16;78.33;100800.97;5092591;28;20066;-78
2021/05/23 02:13:37;;;;;;;24.40;18.67;;;12.80;99.90;;;13.04;78.62;100783.44;5095425;28;20048;-79
2021/05/23 02:16:07;;;;;;;22.95;18.45;;;12.80;99.90;;;13.15;78.68;100797.41;5096772;28;20063;-79
2021/05/23 02:18:36;;;;;;;23.85;18.95;;;12.80;99.90;;;13.13;78.38;100804.53;5096852;28;20048;-79
2021/05/23 02:21:06;;;;;;;23.52;20.08;;;12.90;99.90;;;13.06;78.48;100800.22;5096799;28;20105;-79
2021/05/23 02:23:35;;;;;;;23.85;18.88;;;12.80;99.90;;;12.92;79.46;100809.25;5097145;28;20044;-79
2021/05/23 02:26:03;;;;;;;23.73;19.27;;;12.70;99.90;;;12.87;79.67;100800.50;5096940;28;20043;-78
2021/05/23 02:28:32;;;;;;;24.15;19.65;;;12.70;99.90;;;12.83;80.13;100799.66;5096755;28;20078;-79
2021/05/23 02:31:00;;;;;;;24.33;20.58;;;12.60;99.90;;;12.79;80.39;100800.59;5096650;28;20101;-78
2021/05/23 02:33:28;;;;;;;27.45;21.85;;;12.60;99.90;;;12.62;81.04;100794.63;5096638;28;20043;-79
2021/05/23 02:35:57;;;;;;;26.67;21.05;;;12.50;99.90;;;12.53;81.96;100789.47;5096595;28;20043;-79
2021/05/23 02:38:26;;;;;;;25.63;22.10;;;12.40;99.90;;;12.55;82.41;100795.63;5096286;28;20052;-78
2021/05/23 02:40:56;;;;;;;25.67;22.90;;;12.40;99.90;;;12.55;82.61;100785.00;5078498;28;20048;-78
2021/05/23 02:43:25;;;;;;;28.73;25.08;;;12.40;99.90;;;12.68;83.26;100789.25;5096184;28;20070;-79
2021/05/23 02:45:53;;;;;;;31.10;25.58;;;12.50;99.90;;;12.73;83.36;100787.41;5096065;28;20074;-78
2021/05/23 02:48:22;;;;;;;27.33;24.35;;;12.50;99.90;;;12.78;83.12;100788.22;5096091;28;20439;-78
2021/05/23 02:50:52;;;;;;;28.65;23.88;;;12.60;99.90;;;12.80;83.14;100786.41;5096031;28;20105;-78
2021/05/23 02:53:22;;;;;;;28.55;25.33;;;12.60;99.90;;;12.87;83.32;100797.84;5096406;28;20157;-73
2021/05/23 02:55:51;;;;;;;27.15;23.65;;;12.60;99.90;;;12.97;82.96;100797.66;5095952;28;20067;-75
2021/05/23 02:58:19;;;;;;;27.30;21.92;;;12.70;99.90;;;12.81;83.08;100779.34;5096055;28;20048;-76
2021/05/23 03:00:48;;;;;;;24.35;20.83;;;12.70;99.90;;;12.97;82.81;100808.28;5095877;28;20036;-75
2021/05/23 03:03:17;;;;;;;22.70;20.00;;;12.70;99.90;;;13.09;82.67;100807.25;5095739;28;20066;-76
2021/05/23 03:05:46;;;;;;;22.50;19.08;;;12.80;99.90;;;13.17;82.37;100808.88;5095733;28;20505;-76
2021/05/23 03:08:14;;;;;;;25.10;19.88;;;12.90;99.90;;;13.23;81.67;100813.22;5095720;28;20055;-76
2021/05/23 03:10:45;;;;;;;23.35;18.83;;;12.90;99.90;;;13.16;81.79;100804.47;5095893;28;20051;-75
2021/05/23 03:13:14;;;;;;;19.65;17.42;;;12.90;99.90;;;13.32;81.85;100808.63;5095767;28;20060;-75
2021/05/23 03:15:42;;;;;;;14.95;13.45;;;13.00;99.90;;;13.29;81.57;100800.72;5095787;28;20056;-76
2021/05/23 03:18:11;;;;;;;12.23;10.68;;;13.00;99.90;;;13.31;81.07;100809.56;5095268;28;20516;-75
2021/05/23 03:20:43;;;;;;;11.57;10.38;;;13.00;99.90;;;13.34;80.43;100804.19;5095705;28;20125;-75
2021/05/23 03:23:11;;;;;;;11.90;10.80;;;13.00;99.90;;;13.38;79.78;100808.53;5095363;28;20048;-76
2021/05/23 03:25:39;;;;;;;12.43;10.40;;;13.10;99.90;;;13.39;79.67;100810.28;5095633;28;20036;-75
2021/05/23 03:28:09;;;;;;;10.63;9.52;;;13.10;99.90;;;13.40;79.17;100801.41;5095747;28;20040;-75
2021/05/23 03:30:40;;;;;;;11.15;9.20;;;13.10;99.90;;;13.44;78.67;100811.09;5095507;28;20105;-75
2021/05/23 03:33:10;;;;;;;10.52;9.00;;;13.10;99.90;;;13.40;78.64;100814.69;5077351;28;20097;-74
2021/05/23 03:35:41;;;;;;;9.15;8.25;;;13.10;99.90;;;13.40;78.61;100817.34;5095477;28;20055;-76
2021/05/23 03:38:11;;;;;;;8.52;7.72;;;13.10;99.90;;;13.39;78.27;100812.06;5095244;28;20055;-75
2021/05/23 03:40:40;;;;;;;8.50;7.57;;;13.10;99.90;;;13.39;77.79;100815.59;5095888;28;20410;-75
2021/05/23 03:43:09;;;;;;;7.75;7.03;;;13.10;99.90;;;13.38;77.68;100810.31;5095222;28;20278;-76
2021/05/23 03:45:37;;;;;;;7.95;7.25;;;13.00;99.90;;;13.33;77.48;100815.72;5095243;28;20075;-75
2021/05/23 03:48:07;;;;;;;8.88;8.07;;;13.00;99.90;;;13.33;77.40;100807.75;5095052;28;20047;-76
2021/05/23 03:50:34;;;;;;;9.25;8.27;;;13.00;99.90;;;13.33;77.47;100813.06;5095137;28;20048;-75
2021/05/23 03:53:04;;;;;;;10.55;9.40;;;13.00;99.90;;;13.33;77.18;100806.88;5076607;28;20097;-75
2021/05/23 03:55:32;;;;;;;10.50;9.52;;;13.00;99.90;;;13.34;77.50;100808.59;5094786;28;20044;-76
2021/05/23 03:58:01;;;;;;;15.18;11.07;;;13.00;99.90;;;13.32;77.41;100819.25;5094892;28;20051;-75
2021/05/23 04:00:29;;;;;;;14.32;11.18;;;13.00;99.90;;;13.32;77.73;100805.09;5094897;28;20113;-76
2021/05/23 04:02:57;;;;;;;17.60;11.82;;;13.00;99.90;;;13.32;77.67;100805.09;5076679;28;20048;-76
2021/05/23 04:05:28;;;;;;;15.15;12.48;;;13.00;99.90;;;13.33;77.92;100802.44;5094615;28;20707;-76
2021/05/23 04:07:57;;;;;;;14.27;12.77;;;13.00;99.90;;;13.38;78.03;100799.69;5094587;28;20040;-76
2021/05/23 04:10:31;;;;;;;19.75;14.60;;;13.10;99.90;;;13.37;77.88;100805.91;5094704;28;20105;-77
2021/05/23 04:13:01;;;;;;;20.15;13.90;;;13.10;99.90;;;13.43;78.41;100811.97;5094259;28;20064;-77
2021/05/23 04:15:29;;;;;;;23.10;13.73;;;13.10;99.90;;;13.45;78.26;100817.28;5093687;28;20056;-77
2021/05/23 04:17:58;;;;;;;16.73;14.95;;;13.20;99.90;;;13.41;78.91;100818.25;5076380;28;20052;-77
2021/05/23 04:20:27;;;;;;;21.27;15.70;;;13.10;99.90;;;13.46;79.03;100816.38;5094564;28;20048;-77
2021/05/23 04:22:56;;;;;;;23.23;16.52;;;13.10;99.90;;;13.49;79.51;100822.50;5094201;28;20067;-76
2021/05/23 04:25:26;;;;;;;21.75;17.75;;;13.20;99.90;;;13.44;80.22;100828.81;5094046;28;20402;-77
2021/05/23 04:27:54;;;;;;;22.05;16.80;;;13.20;99.90;;;13.36;80.86;100825.41;5094696;28;20104;-77
2021/05/23 04:30:26;;;;;;;28.67;16.58;;;13.10;99.90;;;13.35;81.70;100847.56;5094252;28;20040;-76
2021/05/23 04:32:55;;;;;;;25.63;14.52;;;13.00;99.90;;;13.30;82.04;100830.81;5094318;28;20052;-76
2021/05/23 04:35:24;;;;;;;22.75;13.45;;;13.10;99.90;;;13.24;82.50;100839.75;5093259;28;20044;-76
2021/05/23 04:37:54;;;;;;;21.00;14.38;;;13.00;99.90;;;13.22;83.16;100841.56;5094040;28;20458;-75
2021/05/23 04:40:22;;;;;;;20.58;13.73;;;12.90;99.90;;;13.23;83.04;100851.28;5075864;28;20124;-76
2021/05/23 04:42:50;;;;;;;18.13;11.68;;;12.90;99.90;;;13.34;81.99;100849.34;5093788;28;20459;-76
2021/05/23 04:45:37;;;;;;;15.93;11.07;;;13.00;99.90;;;13.32;81.19;100824.56;5093931;28;20378;-76
2021/05/23 04:48:06;;;;;;;12.75;10.57;;;13.10;99.90;;;13.39;80.97;100836.84;5093758;28;20404;-76
2021/05/23 04:50:35;;;;;;;23.67;12.65;;;13.10;99.90;;;13.27;81.18;100849.47;5093961;28;20051;-75
2021/05/23 04:53:04;;;;;;;26.63;13.98;;;13.00;99.90;;;13.28;82.15;100845.88;5075683;28;20085;-75
2021/05/23 04:55:33;;;;;;;27.05;13.05;;;13.00;99.90;;;13.10;82.23;100830.25;5093565;28;20474;-77
2021/05/23 04:58:02;;;;;;;27.25;13.82;;;12.90;99.90;;;13.09;83.11;100845.31;5093948;28;20040;-75
2021/05/23 05:00:30;;;;;;;27.15;13.18;;;12.80;99.90;;;13.20;82.84;100853.13;5094054;28;20064;-75
2021/05/23 05:02:58;;;;;;;22.17;12.00;;;12.90;99.90;;;13.32;82.25;100839.63;5075573;28;20081;-75
2021/05/23 05:05:26;;;;;;;21.85;10.23;;;12.90;99.90;;;13.40;82.06;100867.84;5075510;28;20051;-73
2021/05/23 05:07:54;;;;;;;15.63;9.60;;;13.10;99.90;;;13.35;81.15;100858.19;5093687;28;20165;-73
2021/05/23 05:10:22;;;;;;;15.63;10.20;;;13.00;99.90;;;13.40;80.68;100861.63;5093544;28;20067;-73
2021/05/23 05:12:50;;;;;;;18.60;11.43;;;13.10;99.90;;;13.46;80.73;100861.53;5093516;28;20083;-73
2021/05/23 05:15:25;;;;;;;24.23;12.30;;;13.10;99.90;;;13.45;80.95;100865.97;5093453;28;20044;-76
2021/05/23 05:17:53;;;;;;;28.13;12.88;;;13.20;99.90;;;13.33;82.28;100860.00;5093580;28;20043;-76
2021/05/23 05:20:21;;;;;;;28.98;11.98;;;13.10;99.90;;;13.36;82.34;100859.94;5075232;28;20079;-75
2021/05/23 05:22:50;;;;;;;26.23;11.63;;;13.10;99.90;;;13.30;83.30;100858.25;5093289;28;20040;-76
2021/05/23 05:25:19;;;;;;;27.02;10.57;;;13.00;99.90;;;13.42;83.24;100858.06;5093346;28;20093;-75
2021/05/23 05:27:47;;;;;;;26.73;11.70;;;13.10;99.90;;;13.46;83.07;100856.22;5093340;28;20065;-75
2021/05/23 05:30:17;;;;;;;22.65;10.55;;;13.10;99.90;;;13.47;83.04;100869.47;5075090;28;20039;-75
2021/05/23 05:32:46;;;;;;;28.87;10.47;;;13.10;99.90;;;13.22;83.77;100867.25;5093058;28;20051;-75
2021/05/23 05:35:14;;;;;;;26.60;9.88;;;13.00;99.90;;;13.04;84.31;100872.84;5093105;28;20285;-75
2021/05/23 05:37:43;;;;;;;24.35;10.50;;;12.80;99.90;;;12.95;84.74;100876.44;5093080;28;20408;-74
2021/05/23 05:40:13;;;;;;;28.63;10.70;;;12.60;99.90;;;12.81;84.95;100883.75;5093122;28;20464;-75
2021/05/23 05:42:41;;;;;;;30.45;10.32;;;12.50;99.90;;;12.80;85.13;100883.75;5093155;28;20040;-75
2021/05/23 05:45:11;;;;;;;24.42;9.90;;;12.50;99.90;;;12.76;85.28;100880.25;5092896;28;20447;-75
2021/05/23 05:47:39;;;;;;;23.95;10.95;;;12.40;99.90;;;12.72;85.24;100885.66;5093367;28;20051;-75
2021/05/23 05:50:10;;;;;;;27.00;10.48;;;12.40;99.90;;;12.59;85.29;100867.22;5092962;28;20052;-75
2021/05/23 05:52:38;;;;;;;33.65;10.93;;;12.40;99.90;;;12.64;85.46;100883.06;5093157;28;20082;-75
2021/05/23 05:55:07;;;;;;;25.00;10.18;;;12.30;99.90;;;12.61;85.60;100901.69;5093255;28;20044;-75
2021/05/23 05:57:35;;;;;;;24.65;10.10;;;12.30;99.90;;;12.53;85.66;100900.91;5092918;28;20044;-75
2021/05/23 06:00:06;;;;;;;23.33;9.98;;;12.20;99.90;;;12.28;85.24;100880.84;5092928;28;20070;-75
2021/05/23 06:02:39;;;;;;;21.50;9.88;;;12.10;99.90;;;12.39;85.31;100902.81;5092712;28;20048;-74
2021/05/23 06:05:09;;;;;;;30.17;10.32;;;12.10;99.90;;;12.36;85.48;100897.56;5075024;28;20463;-75
2021/05/23 06:07:37;;;;;;;24.60;10.85;;;12.10;99.90;;;12.46;85.35;100907.19;5092997;28;20089;-75
2021/05/23 06:10:06;;;;;;;27.15;10.00;;;12.20;99.90;;;12.52;84.92;100904.47;5092942;28;20052;-75
2021/05/23 06:12:34;;;;;;;26.50;9.77;;;12.30;99.90;;;12.64;84.40;100915.78;5092828;28;20486;-77
2021/05/23 06:15:02;;;;;;;29.70;9.25;;;12.30;99.90;;;12.73;84.24;100914.81;5074610;28;20066;-76
2021/05/23 06:17:30;;;;;;;28.73;8.45;;;12.40;99.90;;;12.66;84.09;100898.06;5092691;28;20056;-75
2021/05/23 06:19:59;;;;;;;22.45;9.00;;;12.50;99.90;;;12.97;84.48;100925.09;5092782;28;20109;-77
2021/05/23 06:22:28;;;;;;;22.25;8.68;;;12.60;99.90;;;13.01;83.35;100926.81;5092750;28;20040;-76
2021/05/23 06:24:56;;;;;;;23.15;9.23;;;12.70;99.90;;;12.83;82.63;100912.91;5092703;28;20048;-75
2021/05/23 06:27:24;;;;;;;20.50;8.60;;;12.70;99.90;;;12.85;82.32;100927.94;5093139;28;20044;-77
2021/05/23 06:29:51;;;;;;;28.38;8.75;;;12.60;99.90;;;12.81;82.00;100942.16;5092751;28;20048;-76
2021/05/23 06:32:19;;;;;;;21.58;8.45;;;12.60;99.90;;;12.79;81.50;100937.75;5092421;28;20076;-77
2021/05/23 06:34:47;;;;;;;21.17;8.52;;;12.50;99.90;;;12.78;81.78;100930.66;5092817;28;20094;-76
2021/05/23 06:37:16;;;;;;;21.75;7.55;;;12.50;99.90;;;12.88;81.86;100934.97;5092831;28;20078;-77
2021/05/23 06:39:45;;;;;;;15.30;7.90;;;12.60;99.90;;;12.89;81.99;100937.59;5092304;28;20493;-77
2021/05/23 06:42:13;;;;;;;19.23;7.68;;;12.60;99.90;;;12.88;81.36;100934.97;5092644;28;20128;-77
2021/05/23 06:44:41;;;;;;;21.27;7.57;;;12.60;99.90;;;12.85;81.50;100951.84;5092576;28;20048;-77
2021/05/23 06:47:09;;;;;;;25.67;8.63;;;12.60;99.90;;;13.01;81.59;100953.38;5074451;28;20044;-77
2021/05/23 06:49:37;;;;;;;22.88;8.65;;;12.70;99.90;;;13.12;81.83;100956.81;5092229;28;20127;-78
2021/05/23 06:52:05;;;;;;;17.10;7.00;;;12.80;99.90;;;12.98;81.35;100947.22;5092485;28;20062;-77
2021/05/23 06:54:33;;;;;;;21.55;7.82;;;12.80;99.90;;;13.02;81.64;100955.16;5092498;28;20063;-76
2021/05/23 06:57:02;;;;;;;17.38;7.82;;;12.80;99.90;;;12.82;81.96;100950.97;5092789;28;20040;-77
2021/05/23 06:59:30;;;;;;;13.60;7.00;;;12.70;99.90;;;12.91;82.65;100957.03;5094608;28;20071;-77
2021/05/23 07:01:58;;;;;;;10.57;6.57;;;12.60;99.90;;;12.81;81.65;100966.03;5096066;28;20052;-78
2021/05/23 07:04:26;;;;;;;13.13;6.78;;;12.60;99.90;;;12.80;82.43;100958.94;5077785;28;20397;-77
2021/05/23 07:06:54;;;;;;;15.93;8.15;;;12.60;99.90;;;12.65;82.73;100943.22;5096238;28;20477;-75
2021/05/23 07:09:22;;;;;;;18.40;7.65;;;12.50;99.90;;;12.66;83.18;100967.06;5095860;28;20040;-77
2021/05/23 07:11:50;;;;;;;22.95;8.88;;;12.40;99.90;;;12.73;83.35;100973.22;5077661;28;20040;-77
2021/05/23 07:14:19;;;;;;;17.98;8.10;;;12.40;99.90;;;12.78;84.30;100970.47;5095698;28;20169;-78
2021/05/23 07:16:47;;;;;;;16.40;8.43;;;12.50;99.90;;;12.90;84.59;100979.19;5095712;28;20106;-78
2021/05/23 07:19:15;;;;;;;16.92;7.40;;;12.70;99.90;;;12.96;83.63;100978.22;5095731;28;20106;-77
2021/05/23 07:21:43;;;;;;;18.45;7.10;;;12.70;99.90;;;13.10;82.83;100969.25;5095668;28;20389;-77
2021/05/23 07:24:12;;;;;;;14.00;7.05;;;12.80;99.90;;;13.11;82.77;100996.66;5095906;28;20489;-78
2021/05/23 07:26:41;;;;;;;17.33;6.63;;;12.90;99.90;;;13.30;82.47;100995.50;5095188;28;20098;-79
2021/05/23 07:29:10;;;;;;;16.08;6.28;;;13.00;99.90;;;13.30;81.17;100993.75;5095495;28;20439;-78
2021/05/23 07:31:39;;;;;;;18.73;6.25;;;13.10;99.90;;;13.28;80.08;100987.56;5077568;28;20048;-78
2021/05/23 07:34:07;;;;;;;16.98;5.85;;;13.00;99.90;;;13.08;78.82;100989.63;5095453;28;20048;-77
2021/05/23 07:36:35;;;;;;;16.63;5.65;;;12.90;99.90;;;13.04;78.52;100993.22;5095407;28;20044;-77
2021/05/23 07:39:03;;;;;;;16.15;5.47;;;12.80;99.90;;;12.76;79.38;100996.16;5095256;28;20068;-76
2021/05/23 07:41:31;;;;;;;13.02;5.07;;;12.60;99.90;;;12.58;80.20;101008.72;5095303;28;20139;-75
2021/05/23 07:43:59;;;;;;;11.60;5.07;;;12.40;99.90;;;12.34;80.78;101000.16;5095134;28;20036;-74
2021/05/23 07:46:27;;;;;;;9.30;4.82;;;12.20;99.90;;;12.28;81.52;101001.09;5094907;28;20064;-74
2021/05/23 07:48:56;;;;;;;8.98;5.60;;;12.10;99.90;;;12.27;82.24;101004.63;5095047;28;20427;-75
2021/05/23 07:51:28;;;;;;;11.32;5.22;;;12.00;99.90;;;12.19;82.24;101010.91;5095112;28;20388;-74
2021/05/23 07:53:56;;;;;;;7.30;5.55;;;12.00;99.90;;;12.15;82.17;101007.41;5095066;28;20094;-74
2021/05/23 07:56:24;;;;;;;6.95;5.00;;;11.90;99.90;;;12.10;81.81;101014.50;5094661;28;20044;-75
2021/05/23 07:58:52;;;;;;;7.80;4.32;;;11.80;99.90;;;12.04;81.89;101016.34;5076838;28;20168;-75
2021/05/23 08:01:21;;;;;;;7.20;4.78;;;11.80;99.90;;;12.09;82.21;101028.66;5094832;28;20048;-75
2021/05/23 08:03:49;;;;;;;7.25;4.82;;;11.80;99.90;;;12.04;82.42;101033.09;5094930;28;20048;-75
2021/05/23 08:06:18;;;;;;;6.32;4.47;;;11.80;99.90;;;12.07;82.64;101025.16;5094725;28;20493;-75
2021/05/23 08:08:46;;;;;;;4.40;4.00;;;11.80;99.90;;;12.05;82.12;101031.34;5076537;28;20078;-75
2021/05/23 08:11:14;;;;;;;6.20;5.13;;;11.80;99.90;;;12.09;81.45;101041.03;5093426;28;20664;-74
2021/05/23 08:13:41;;;;;;;8.38;4.80;;;11.80;99.90;;;12.26;81.69;101034.69;5094632;28;20040;-75
2021/05/23 08:16:10;;;;;;;10.25;4.65;;;11.90;99.90;;;12.28;80.98;101053.25;5094749;28;20191;-75
2021/05/23 08:18:38;;;;;;;11.75;5.55;;;12.00;99.90;;;12.39;81.03;101048.72;5094619;28;20047;-75
2021/05/23 08:21:07;;;;;;;11.60;5.00;;;12.10;99.90;;;12.54;81.55;101053.91;5095196;28;20044;-75
2021/05/23 08:23:36;;;;;;;10.70;4.97;;;12.20;99.90;;;12.52;81.01;101061.00;5094489;28;20060;-74
2021/05/23 08:26:04;;;;;;;13.60;5.63;;;12.30;99.90;;;12.51;80.60;101061.88;5094197;28;20047;-76
2021/05/23 08:28:33;;;;;;;9.63;5.60;;;12.30;99.90;;;12.66;80.76;101062.63;5094265;28;20067;-76
2021/05/23 08:31:03;;;;;;;10.95;6.07;;;12.40;99.90;;;12.81;81.13;101066.91;5094276;28;20082;-76
2021/05/23 08:33:31;;;;;;;13.15;5.95;;;12.50;99.90;;;12.81;80.49;101063.38;5076182;28;20055;-76
2021/05/23 08:36:00;;;;;;;17.02;5.88;;;12.60;99.90;;;12.84;79.92;101061.56;5075556;28;20125;-77
2021/05/23 08:38:29;;;;;;;18.15;6.43;;;12.60;99.90;;;12.93;78.56;101082.69;5093222;28;20109;-76
2021/05/23 08:41:01;;;;;;;13.43;5.50;;;12.70;99.90;;;13.06;77.47;101089.69;5093564;28;20460;-77
2021/05/23 08:43:30;;;;;;;21.25;6.78;;;12.80;99.90;;;13.11;77.12;101082.53;5093451;28;20087;-77
2021/05/23 08:46:00;;;;;;;13.82;6.00;;;12.90;99.90;;;13.16;74.56;101099.28;5093715;28;20052;-77
2021/05/23 08:48:29;;;;;;;17.15;5.97;;;12.90;99.90;;;13.20;74.89;101105.47;5093721;28;20126;-76
2021/05/23 08:50:57;;;;;;;13.68;5.80;;;13.00;99.90;;;13.31;73.91;101106.22;5093063;28;20047;-75
2021/05/23 08:53:26;;;;;;;13.18;5.25;;;13.10;99.90;;;13.31;72.91;101130.13;5093650;28;20044;-77
2021/05/23 08:55:54;;;;;;;13.95;5.50;;;13.10;99.90;;;13.46;73.36;101100.69;5074941;28;20066;-76
2021/05/23 08:58:24;;;;;;;13.02;5.80;;;13.10;99.90;;;13.55;71.86;101105.88;5093107;28;20039;-77
2021/05/23 09:00:53;;;;;;;18.08;5.57;;;13.30;99.90;;;13.64;71.91;101113.78;5093303;28;20043;-77
2021/05/23 09:03:21;;;;;;;16.10;6.05;;;13.40;99.90;;;13.80;71.26;101109.97;5093242;28;20044;-78
2021/05/23 09:05:55;;;;;;;16.15;5.60;;;13.50;99.90;;;13.85;71.10;101109.94;5093226;28;20056;-78
2021/05/23 09:08:26;;;;;;;15.05;5.95;;;13.60;99.90;;;14.03;69.92;101112.34;5093113;28;20062;-77
2021/05/23 09:10:57;;;;;;;11.95;5.45;;;13.80;99.90;;;14.17;69.32;101113.00;5093093;28;20420;-77
2021/05/23 09:13:32;;;;;;;18.95;5.75;;;13.90;99.90;;;14.11;68.92;101110.44;5092599;28;20047;-77
2021/05/23 09:16:04;;;;;;;12.88;5.70;;;13.90;99.90;;;14.25;67.70;101114.66;5092790;28;20056;-77
2021/05/23 09:18:43;;;;;;;16.73;6.28;;;14.00;99.90;;;14.39;68.06;101127.78;5092786;28;20044;-78
2021/05/23 09:21:14;;;;;;;13.32;5.72;;;14.10;99.90;;;14.53;68.73;101133.75;5092320;28;20044;-77
2021/05/23 09:23:48;;;;;;;14.23;5.22;;;14.20;99.90;;;14.56;68.02;101127.47;5093136;28;20048;-78
2021/05/23 09:26:19;;;;;;;12.65;5.57;;;14.30;99.90;;;14.43;67.74;101126.81;5092638;28;20040;-77
2021/05/23 09:28:50;;;;;;;15.65;4.82;;;14.20;99.90;;;14.37;68.03;101134.91;5092924;28;20059;-77
2021/05/23 09:31:21;;;;;;;14.85;5.55;;;14.10;99.90;;;14.36;68.17;101138.47;5093114;28;20051;-78
2021/05/23 09:33:52;;;;;;;16.58;6.00;;;14.10;99.90;;;14.14;68.23;101158.28;5092752;28;20036;-78
2021/05/23 09:36:21;;;;;;;15.85;6.30;;;14.00;99.90;;;14.05;68.87;101130.00;5074770;28;20051;-77
2021/05/23 09:38:55;;;;;;;15.57;6.22;;;13.90;99.90;;;13.88;68.95;101136.50;5074546;28;20496;-77
2021/05/23 09:41:26;;;;;;;12.10;6.25;;;13.70;99.90;;;13.98;70.22;101167.34;5092675;28;20067;-77
2021/05/23 09:44:14;;;;;;;14.45;6.80;;;13.70;99.90;;;13.76;69.62;101166.78;5092399;28;20104;-77
2021/05/23 09:46:55;;;;;;;10.55;5.60;;;13.50;99.90;;;13.68;69.03;101171.31;5092375;28;20051;-76
2021/05/23 09:49:24;;;;;;;14.00;6.47;;;13.40;99.90;;;13.78;67.94;101166.75;5092477;28;20055;-78
2021/05/23 09:51:55;;;;;;;10.93;5.38;;;13.50;99.90;;;13.88;67.01;101171.91;5092430;28;20059;-77
2021/05/23 09:54:26;;;;;;;10.35;4.85;;;13.60;99.90;;;14.07;65.11;101161.94;5092603;28;20048;-78
2021/05/23 09:56:54;;;;;;;;;;;13.80;99.90;;;14.22;64.76;101167.03;5092329;28;20044;-78
2021/05/23 09:59:24;;;;;;;11.13;4.68;;;13.90;99.90;;;14.16;60.72;101156.47;5092057;28;19928;-78
2021/05/23 10:02:04;;;;;;;11.23;5.10;;;14.00;99.90;;;14.14;59.87;101171.56;5074094;28;20059;-77
2021/05/23 10:04:34;;;;;;;8.98;4.35;;;14.00;99.90;;;14.30;59.86;101165.19;5092261;28;20048;-76
2021/05/23 10:07:05;;;;;;;11.25;5.00;;;14.00;99.90;;;14.58;61.66;101193.13;5074096;28;20074;-77
2021/05/23 10:09:34;;;;;;;7.38;4.63;;;14.20;99.90;;;14.54;56.95;101183.41;5092238;28;20451;-78
2021/05/23 10:12:03;;;;;;;6.88;3.95;;;14.30;99.90;;;14.61;54.15;101190.44;5092330;28;20040;-78
2021/05/23 10:14:34;;;;;;;5.72;3.78;;;14.40;99.90;;;14.74;53.61;101186.66;5091893;28;20213;-78